Terminal Aerodrome Forecast
Issued by NWS Wilmington, OH

Current Version | Previous Version | Text Only | Print | Product List | Glossary Off
Versions: 1 2 3 4 5 6 7 8 9 10 11 12 13 14 15 16 17 18 19 20 21 22 23 24 25 26 27 28 29 30

226
FTUS41 KILN 272100 AAA
TAFCVG
TAF AMD
KCVG 272100Z 2721/2824 27015G22KT P6SM BKN035
     FM272300 27010KT P6SM FEW035
     FM280300 25004KT P6SM FEW150
     FM280800 13004KT P6SM BKN150
     FM281900 15010KT P6SM BKN120=

USA.gov is the U.S. government's official web portal to all federal, state and local government web resources and services.